sensor_id;sensor_type;location;lat;lon;timestamp;P1;durP1;ratioP1;P2;durP2;ratioP2
30147;SDS011;16960;49.404;8.248;2023-02-24T00:01:34;4.27;;;2.90;;
30147;SDS011;16960;49.404;8.248;2023-02-24T00:04:05;3.37;;;3.07;;
30147;SDS011;16960;49.404;8.248;2023-02-24T00:06:34;3.70;;;3.23;;
30147;SDS011;16960;49.404;8.248;2023-02-24T00:09:02;3.87;;;3.57;;
30147;SDS011;16960;49.404;8.248;2023-02-24T00:11:33;3.33;;;2.90;;
30147;SDS011;16960;49.404;8.248;2023-02-24T00:14:00;4.53;;;3.33;;
30147;SDS011;16960;49.404;8.248;2023-02-24T00:16:29;3.20;;;2.90;;
30147;SDS011;16960;49.404;8.248;2023-02-24T00:18:56;3.40;;;3.10;;
30147;SDS011;16960;49.404;8.248;2023-02-24T00:21:25;3.57;;;3.10;;
30147;SDS011;16960;49.404;8.248;2023-02-24T00:23:53;3.37;;;3.07;;
30147;SDS011;16960;49.404;8.248;2023-02-24T00:26:20;4.30;;;3.83;;
30147;SDS011;16960;49.404;8.248;2023-02-24T00:28:47;3.77;;;3.37;;
30147;SDS011;16960;49.404;8.248;2023-02-24T00:31:14;3.50;;;3.20;;
30147;SDS011;16960;49.404;8.248;2023-02-24T00:33:43;4.20;;;3.80;;
30147;SDS011;16960;49.404;8.248;2023-02-24T00:36:11;4.80;;;3.50;;
30147;SDS011;16960;49.404;8.248;2023-02-24T00:38:42;3.93;;;3.63;;
30147;SDS011;16960;49.404;8.248;2023-02-24T00:41:11;3.90;;;3.60;;
30147;SDS011;16960;49.404;8.248;2023-02-24T00:43:41;3.77;;;3.47;;
30147;SDS011;16960;49.404;8.248;2023-02-24T00:46:11;3.43;;;3.13;;
30147;SDS011;16960;49.404;8.248;2023-02-24T00:48:41;3.27;;;2.97;;
30147;SDS011;16960;49.404;8.248;2023-02-24T00:51:10;3.90;;;3.60;;
30147;SDS011;16960;49.404;8.248;2023-02-24T00:53:42;3.63;;;3.33;;
30147;SDS011;16960;49.404;8.248;2023-02-24T00:56:09;4.37;;;3.97;;
30147;SDS011;16960;49.404;8.248;2023-02-24T00:58:37;3.33;;;3.03;;
30147;SDS011;16960;49.404;8.248;2023-02-24T01:01:04;3.80;;;3.50;;
30147;SDS011;16960;49.404;8.248;2023-02-24T01:03:38;3.57;;;3.27;;
30147;SDS011;16960;49.404;8.248;2023-02-24T01:06:05;5.90;;;3.60;;
30147;SDS011;16960;49.404;8.248;2023-02-24T01:08:32;3.27;;;2.97;;
30147;SDS011;16960;49.404;8.248;2023-02-24T01:11:02;4.20;;;3.80;;
30147;SDS011;16960;49.404;8.248;2023-02-24T01:13:46;5.03;;;3.70;;
30147;SDS011;16960;49.404;8.248;2023-02-24T01:16:13;3.67;;;3.37;;
30147;SDS011;16960;49.404;8.248;2023-02-24T01:18:43;3.77;;;3.47;;
30147;SDS011;16960;49.404;8.248;2023-02-24T01:21:11;3.67;;;3.37;;
30147;SDS011;16960;49.404;8.248;2023-02-24T01:23:39;3.77;;;3.47;;
30147;SDS011;16960;49.404;8.248;2023-02-24T01:26:08;4.40;;;3.90;;
30147;SDS011;16960;49.404;8.248;2023-02-24T01:28:35;4.03;;;3.70;;
30147;SDS011;16960;49.404;8.248;2023-02-24T01:31:02;3.80;;;3.50;;
30147;SDS011;16960;49.404;8.248;2023-02-24T01:33:31;4.20;;;3.90;;
30147;SDS011;16960;49.404;8.248;2023-02-24T01:36:11;3.30;;;3.00;;
30147;SDS011;16960;49.404;8.248;2023-02-24T01:38:39;3.70;;;3.40;;
30147;SDS011;16960;49.404;8.248;2023-02-24T01:41:08;3.30;;;3.00;;
30147;SDS011;16960;49.404;8.248;2023-02-24T01:43:57;3.50;;;3.20;;
30147;SDS011;16960;49.404;8.248;2023-02-24T01:46:26;3.83;;;3.53;;
30147;SDS011;16960;49.404;8.248;2023-02-24T01:48:56;3.27;;;2.97;;
30147;SDS011;16960;49.404;8.248;2023-02-24T01:51:28;3.57;;;3.27;;
30147;SDS011;16960;49.404;8.248;2023-02-24T01:53:57;3.80;;;3.50;;
30147;SDS011;16960;49.404;8.248;2023-02-24T01:56:26;3.23;;;2.93;;
30147;SDS011;16960;49.404;8.248;2023-02-24T01:58:57;3.33;;;3.03;;
30147;SDS011;16960;49.404;8.248;2023-02-24T02:01:25;4.00;;;3.50;;
30147;SDS011;16960;49.404;8.248;2023-02-24T02:03:53;4.40;;;3.67;;
30147;SDS011;16960;49.404;8.248;2023-02-24T02:06:25;4.37;;;3.87;;
30147;SDS011;16960;49.404;8.248;2023-02-24T02:08:53;4.10;;;3.80;;
30147;SDS011;16960;49.404;8.248;2023-02-24T02:11:21;4.17;;;3.83;;
30147;SDS011;16960;49.404;8.248;2023-02-24T02:13:49;3.90;;;3.60;;
30147;SDS011;16960;49.404;8.248;2023-02-24T02:16:22;4.33;;;3.93;;
30147;SDS011;16960;49.404;8.248;2023-02-24T02:19:19;3.90;;;3.60;;
30147;SDS011;16960;49.404;8.248;2023-02-24T02:22:23;3.57;;;3.27;;
30147;SDS011;16960;49.404;8.248;2023-02-24T02:25:12;3.50;;;3.20;;
30147;SDS011;16960;49.404;8.248;2023-02-24T02:27:52;3.90;;;3.60;;
30147;SDS011;16960;49.404;8.248;2023-02-24T02:30:52;4.73;;;3.77;;
30147;SDS011;16960;49.404;8.248;2023-02-24T02:36:36;4.00;;;3.57;;
30147;SDS011;16960;49.404;8.248;2023-02-24T02:39:13;4.37;;;3.50;;
30147;SDS011;16960;49.404;8.248;2023-02-24T02:41:50;6.70;;;4.30;;
30147;SDS011;16960;49.404;8.248;2023-02-24T02:44:20;3.50;;;3.20;;
30147;SDS011;16960;49.404;8.248;2023-02-24T02:46:52;4.00;;;3.60;;
30147;SDS011;16960;49.404;8.248;2023-02-24T02:49:28;3.63;;;3.33;;
30147;SDS011;16960;49.404;8.248;2023-02-24T02:52:01;3.80;;;3.50;;
30147;SDS011;16960;49.404;8.248;2023-02-24T02:54:32;3.70;;;3.40;;
30147;SDS011;16960;49.404;8.248;2023-02-24T02:57:10;3.13;;;2.90;;
30147;SDS011;16960;49.404;8.248;2023-02-24T02:59:41;3.30;;;3.00;;
30147;SDS011;16960;49.404;8.248;2023-02-24T03:02:13;3.30;;;3.03;;
30147;SDS011;16960;49.404;8.248;2023-02-24T03:04:44;3.60;;;3.30;;
30147;SDS011;16960;49.404;8.248;2023-02-24T03:07:15;4.33;;;3.93;;
30147;SDS011;16960;49.404;8.248;2023-02-24T03:09:46;3.53;;;3.23;;
30147;SDS011;16960;49.404;8.248;2023-02-24T03:12:20;3.73;;;3.43;;
30147;SDS011;16960;49.404;8.248;2023-02-24T03:14:50;4.17;;;3.80;;
30147;SDS011;16960;49.404;8.248;2023-02-24T03:17:23;4.20;;;3.80;;
30147;SDS011;16960;49.404;8.248;2023-02-24T03:19:56;4.03;;;3.63;;
30147;SDS011;16960;49.404;8.248;2023-02-24T03:22:40;3.87;;;3.57;;
30147;SDS011;16960;49.404;8.248;2023-02-24T03:25:09;4.00;;;3.60;;
30147;SDS011;16960;49.404;8.248;2023-02-24T03:27:37;3.67;;;3.37;;
30147;SDS011;16960;49.404;8.248;2023-02-24T03:30:11;3.67;;;3.37;;
30147;SDS011;16960;49.404;8.248;2023-02-24T03:32:42;4.00;;;3.60;;
30147;SDS011;16960;49.404;8.248;2023-02-24T03:35:21;4.20;;;3.87;;
30147;SDS011;16960;49.404;8.248;2023-02-24T03:37:51;4.13;;;3.73;;
30147;SDS011;16960;49.404;8.248;2023-02-24T03:40:20;4.27;;;3.70;;
30147;SDS011;16960;49.404;8.248;2023-02-24T03:42:53;3.80;;;3.50;;
30147;SDS011;16960;49.404;8.248;2023-02-24T03:45:29;3.90;;;3.60;;
30147;SDS011;16960;49.404;8.248;2023-02-24T03:47:59;4.23;;;3.83;;
30147;SDS011;16960;49.404;8.248;2023-02-24T03:50:29;4.27;;;3.87;;
30147;SDS011;16960;49.404;8.248;2023-02-24T03:52:59;3.53;;;3.23;;
30147;SDS011;16960;49.404;8.248;2023-02-24T03:55:36;4.20;;;3.80;;
30147;SDS011;16960;49.404;8.248;2023-02-24T03:58:15;3.70;;;3.40;;
30147;SDS011;16960;49.404;8.248;2023-02-24T04:00:47;3.90;;;3.50;;
30147;SDS011;16960;49.404;8.248;2023-02-24T04:03:24;4.30;;;3.90;;
30147;SDS011;16960;49.404;8.248;2023-02-24T04:06:00;4.13;;;3.73;;
30147;SDS011;16960;49.404;8.248;2023-02-24T04:08:36;3.77;;;3.37;;
30147;SDS011;16960;49.404;8.248;2023-02-24T04:11:09;3.83;;;3.53;;
30147;SDS011;16960;49.404;8.248;2023-02-24T04:13:42;3.73;;;3.43;;
30147;SDS011;16960;49.404;8.248;2023-02-24T04:16:13;3.60;;;3.30;;
30147;SDS011;16960;49.404;8.248;2023-02-24T04:18:52;4.17;;;3.77;;
30147;SDS011;16960;49.404;8.248;2023-02-24T04:21:25;4.53;;;4.00;;
30147;SDS011;16960;49.404;8.248;2023-02-24T04:23:54;3.77;;;3.47;;
30147;SDS011;16960;49.404;8.248;2023-02-24T04:26:22;4.20;;;3.80;;
30147;SDS011;16960;49.404;8.248;2023-02-24T04:28:50;3.57;;;3.27;;
30147;SDS011;16960;49.404;8.248;2023-02-24T04:31:19;3.47;;;3.17;;
30147;SDS011;16960;49.404;8.248;2023-02-24T04:33:50;3.90;;;3.60;;
30147;SDS011;16960;49.404;8.248;2023-02-24T04:36:17;3.97;;;3.57;;
30147;SDS011;16960;49.404;8.248;2023-02-24T04:38:47;4.33;;;3.90;;
30147;SDS011;16960;49.404;8.248;2023-02-24T04:41:14;4.33;;;3.93;;
30147;SDS011;16960;49.404;8.248;2023-02-24T04:43:45;3.70;;;3.40;;
30147;SDS011;16960;49.404;8.248;2023-02-24T04:46:14;4.00;;;3.63;;
30147;SDS011;16960;49.404;8.248;2023-02-24T04:48:42;3.83;;;3.53;;
30147;SDS011;16960;49.404;8.248;2023-02-24T04:51:09;3.77;;;3.47;;
30147;SDS011;16960;49.404;8.248;2023-02-24T04:53:36;4.63;;;4.13;;
30147;SDS011;16960;49.404;8.248;2023-02-24T04:56:05;3.37;;;3.07;;
30147;SDS011;16960;49.404;8.248;2023-02-24T04:58:33;3.47;;;3.17;;
30147;SDS011;16960;49.404;8.248;2023-02-24T05:01:04;4.10;;;3.70;;
30147;SDS011;16960;49.404;8.248;2023-02-24T05:03:34;3.80;;;3.50;;
30147;SDS011;16960;49.404;8.248;2023-02-24T05:06:02;3.67;;;3.37;;
30147;SDS011;16960;49.404;8.248;2023-02-24T05:08:30;4.10;;;3.70;;
30147;SDS011;16960;49.404;8.248;2023-02-24T05:10:58;3.80;;;3.50;;
30147;SDS011;16960;49.404;8.248;2023-02-24T05:13:29;4.00;;;3.60;;
30147;SDS011;16960;49.404;8.248;2023-02-24T05:16:02;3.03;;;2.83;;
30147;SDS011;16960;49.404;8.248;2023-02-24T05:18:31;3.90;;;3.60;;
30147;SDS011;16960;49.404;8.248;2023-02-24T05:21:03;4.03;;;3.73;;
30147;SDS011;16960;49.404;8.248;2023-02-24T05:23:49;3.43;;;3.13;;
30147;SDS011;16960;49.404;8.248;2023-02-24T05:26:19;3.10;;;2.87;;
30147;SDS011;16960;49.404;8.248;2023-02-24T05:28:51;3.70;;;3.40;;
30147;SDS011;16960;49.404;8.248;2023-02-24T05:31:21;4.47;;;3.60;;
30147;SDS011;16960;49.404;8.248;2023-02-24T05:33:50;3.20;;;2.90;;
30147;SDS011;16960;49.404;8.248;2023-02-24T05:36:20;3.40;;;3.10;;
30147;SDS011;16960;49.404;8.248;2023-02-24T05:38:48;3.33;;;3.03;;
30147;SDS011;16960;49.404;8.248;2023-02-24T05:41:19;3.50;;;3.00;;
30147;SDS011;16960;49.404;8.248;2023-02-24T05:43:48;3.33;;;3.03;;
30147;SDS011;16960;49.404;8.248;2023-02-24T05:46:19;3.60;;;3.30;;
30147;SDS011;16960;49.404;8.248;2023-02-24T05:48:52;3.30;;;3.00;;
30147;SDS011;16960;49.404;8.248;2023-02-24T05:51:21;4.03;;;3.63;;
30147;SDS011;16960;49.404;8.248;2023-02-24T05:53:48;3.50;;;3.20;;
30147;SDS011;16960;49.404;8.248;2023-02-24T05:56:19;3.77;;;3.30;;
30147;SDS011;16960;49.404;8.248;2023-02-24T05:58:47;3.53;;;3.23;;
30147;SDS011;16960;49.404;8.248;2023-02-24T06:01:16;3.23;;;2.93;;
30147;SDS011;16960;49.404;8.248;2023-02-24T06:03:43;3.27;;;2.97;;
30147;SDS011;16960;49.404;8.248;2023-02-24T06:06:12;3.33;;;3.07;;
30147;SDS011;16960;49.404;8.248;2023-02-24T06:08:40;3.47;;;3.17;;
30147;SDS011;16960;49.404;8.248;2023-02-24T06:11:14;3.23;;;3.03;;
30147;SDS011;16960;49.404;8.248;2023-02-24T06:13:43;4.10;;;3.60;;
30147;SDS011;16960;49.404;8.248;2023-02-24T06:16:12;5.13;;;3.33;;
30147;SDS011;16960;49.404;8.248;2023-02-24T06:18:41;3.50;;;3.17;;
30147;SDS011;16960;49.404;8.248;2023-02-24T06:21:09;3.30;;;3.00;;
30147;SDS011;16960;49.404;8.248;2023-02-24T06:23:37;3.60;;;3.30;;
30147;SDS011;16960;49.404;8.248;2023-02-24T06:26:05;3.20;;;2.90;;
30147;SDS011;16960;49.404;8.248;2023-02-24T06:28:37;3.70;;;3.40;;
30147;SDS011;16960;49.404;8.248;2023-02-24T06:31:07;3.53;;;3.20;;
30147;SDS011;16960;49.404;8.248;2023-02-24T06:33:35;4.00;;;2.90;;
30147;SDS011;16960;49.404;8.248;2023-02-24T06:36:04;3.60;;;3.30;;
30147;SDS011;16960;49.404;8.248;2023-02-24T06:38:32;4.20;;;3.77;;
30147;SDS011;16960;49.404;8.248;2023-02-24T06:41:00;3.83;;;3.53;;
30147;SDS011;16960;49.404;8.248;2023-02-24T06:43:28;5.40;;;3.50;;
30147;SDS011;16960;49.404;8.248;2023-02-24T06:45:55;3.53;;;3.23;;
30147;SDS011;16960;49.404;8.248;2023-02-24T06:48:22;4.50;;;4.10;;
30147;SDS011;16960;49.404;8.248;2023-02-24T06:50:49;4.80;;;4.30;;
30147;SDS011;16960;49.404;8.248;2023-02-24T06:53:17;5.47;;;4.20;;
30147;SDS011;16960;49.404;8.248;2023-02-24T06:55:45;6.20;;;5.53;;
30147;SDS011;16960;49.404;8.248;2023-02-24T06:58:14;6.40;;;5.40;;
30147;SDS011;16960;49.404;8.248;2023-02-24T07:00:42;8.60;;;5.80;;
30147;SDS011;16960;49.404;8.248;2023-02-24T07:03:21;5.63;;;5.10;;
30147;SDS011;16960;49.404;8.248;2023-02-24T07:05:50;5.10;;;4.47;;
30147;SDS011;16960;49.404;8.248;2023-02-24T07:08:36;6.87;;;5.60;;
30147;SDS011;16960;49.404;8.248;2023-02-24T07:11:03;6.17;;;5.57;;
30147;SDS011;16960;49.404;8.248;2023-02-24T07:13:32;9.70;;;6.10;;
30147;SDS011;16960;49.404;8.248;2023-02-24T07:16:01;9.10;;;6.20;;
30147;SDS011;16960;49.404;8.248;2023-02-24T07:18:31;9.00;;;6.63;;
30147;SDS011;16960;49.404;8.248;2023-02-24T07:21:00;7.00;;;5.37;;
30147;SDS011;16960;49.404;8.248;2023-02-24T07:23:29;7.23;;;6.33;;
30147;SDS011;16960;49.404;8.248;2023-02-24T07:25:58;6.77;;;5.90;;
30147;SDS011;16960;49.404;8.248;2023-02-24T07:28:25;7.47;;;6.50;;
30147;SDS011;16960;49.404;8.248;2023-02-24T07:30:52;9.67;;;7.03;;
30147;SDS011;16960;49.404;8.248;2023-02-24T07:33:19;7.93;;;7.10;;
30147;SDS011;16960;49.404;8.248;2023-02-24T07:35:48;7.90;;;6.20;;
30147;SDS011;16960;49.404;8.248;2023-02-24T07:38:16;8.33;;;7.40;;
30147;SDS011;16960;49.404;8.248;2023-02-24T07:40:47;8.50;;;7.67;;
30147;SDS011;16960;49.404;8.248;2023-02-24T07:43:15;8.83;;;7.93;;
30147;SDS011;16960;49.404;8.248;2023-02-24T07:45:43;7.90;;;6.67;;
30147;SDS011;16960;49.404;8.248;2023-02-24T07:48:11;6.93;;;6.23;;
30147;SDS011;16960;49.404;8.248;2023-02-24T07:50:39;7.63;;;6.87;;
30147;SDS011;16960;49.404;8.248;2023-02-24T07:53:07;11.10;;;7.23;;
30147;SDS011;16960;49.404;8.248;2023-02-24T07:55:34;8.70;;;7.60;;
30147;SDS011;16960;49.404;8.248;2023-02-24T07:58:01;10.47;;;7.80;;
30147;SDS011;16960;49.404;8.248;2023-02-24T08:00:31;9.73;;;7.50;;
30147;SDS011;16960;49.404;8.248;2023-02-24T08:03:14;9.40;;;7.33;;
30147;SDS011;16960;49.404;8.248;2023-02-24T08:05:41;9.83;;;8.40;;
30147;SDS011;16960;49.404;8.248;2023-02-24T08:08:08;11.33;;;8.83;;
30147;SDS011;16960;49.404;8.248;2023-02-24T08:10:38;10.90;;;9.67;;
30147;SDS011;16960;49.404;8.248;2023-02-24T08:13:06;12.80;;;9.47;;
30147;SDS011;16960;49.404;8.248;2023-02-24T08:15:37;10.37;;;9.27;;
30147;SDS011;16960;49.404;8.248;2023-02-24T08:18:04;9.57;;;8.03;;
30147;SDS011;16960;49.404;8.248;2023-02-24T08:20:31;11.80;;;9.20;;
30147;SDS011;16960;49.404;8.248;2023-02-24T08:23:16;12.93;;;9.97;;
30147;SDS011;16960;49.404;8.248;2023-02-24T08:25:43;10.10;;;8.43;;
30147;SDS011;16960;49.404;8.248;2023-02-24T08:28:10;12.00;;;9.27;;
30147;SDS011;16960;49.404;8.248;2023-02-24T08:30:39;12.20;;;9.40;;
30147;SDS011;16960;49.404;8.248;2023-02-24T08:33:10;11.40;;;8.70;;
30147;SDS011;16960;49.404;8.248;2023-02-24T08:35:40;11.17;;;9.40;;
30147;SDS011;16960;49.404;8.248;2023-02-24T08:38:09;13.17;;;9.97;;
30147;SDS011;16960;49.404;8.248;2023-02-24T08:40:39;12.77;;;10.30;;
30147;SDS011;16960;49.404;8.248;2023-02-24T08:43:20;10.17;;;8.77;;
30147;SDS011;16960;49.404;8.248;2023-02-24T08:45:59;11.30;;;9.90;;
30147;SDS011;16960;49.404;8.248;2023-02-24T08:48:28;10.77;;;8.80;;
30147;SDS011;16960;49.404;8.248;2023-02-24T08:51:05;13.90;;;9.93;;
30147;SDS011;16960;49.404;8.248;2023-02-24T08:53:34;11.83;;;9.10;;
30147;SDS011;16960;49.404;8.248;2023-02-24T08:56:04;13.30;;;10.60;;
30147;SDS011;16960;49.404;8.248;2023-02-24T08:58:35;14.23;;;10.47;;
30147;SDS011;16960;49.404;8.248;2023-02-24T09:01:09;16.50;;;11.40;;
30147;SDS011;16960;49.404;8.248;2023-02-24T09:03:42;12.83;;;10.40;;
30147;SDS011;16960;49.404;8.248;2023-02-24T09:06:11;14.77;;;11.20;;
30147;SDS011;16960;49.404;8.248;2023-02-24T09:08:41;12.07;;;9.60;;
30147;SDS011;16960;49.404;8.248;2023-02-24T09:11:10;12.73;;;10.47;;
30147;SDS011;16960;49.404;8.248;2023-02-24T09:13:38;17.47;;;11.37;;
30147;SDS011;16960;49.404;8.248;2023-02-24T09:16:17;13.47;;;11.73;;
30147;SDS011;16960;49.404;8.248;2023-02-24T09:18:45;13.63;;;11.17;;
30147;SDS011;16960;49.404;8.248;2023-02-24T09:21:32;12.17;;;9.80;;
30147;SDS011;16960;49.404;8.248;2023-02-24T09:24:18;13.37;;;10.77;;
30147;SDS011;16960;49.404;8.248;2023-02-24T09:26:51;16.80;;;12.73;;
30147;SDS011;16960;49.404;8.248;2023-02-24T09:29:22;15.00;;;11.90;;
30147;SDS011;16960;49.404;8.248;2023-02-24T09:32:00;14.93;;;10.77;;
30147;SDS011;16960;49.404;8.248;2023-02-24T09:34:38;13.23;;;11.43;;
30147;SDS011;16960;49.404;8.248;2023-02-24T09:37:08;15.93;;;11.43;;
30147;SDS011;16960;49.404;8.248;2023-02-24T09:39:49;12.20;;;10.60;;
30147;SDS011;16960;49.404;8.248;2023-02-24T09:42:39;13.53;;;11.13;;
30147;SDS011;16960;49.404;8.248;2023-02-24T09:45:12;16.30;;;11.73;;
30147;SDS011;16960;49.404;8.248;2023-02-24T09:47:58;15.50;;;11.70;;
30147;SDS011;16960;49.404;8.248;2023-02-24T09:50:35;14.33;;;12.07;;
30147;SDS011;16960;49.404;8.248;2023-02-24T09:53:25;14.80;;;11.47;;
30147;SDS011;16960;49.404;8.248;2023-02-24T09:56:04;16.00;;;12.93;;
30147;SDS011;16960;49.404;8.248;2023-02-24T09:58:47;15.33;;;12.13;;
30147;SDS011;16960;49.404;8.248;2023-02-24T10:01:28;14.10;;;11.80;;
30147;SDS011;16960;49.404;8.248;2023-02-24T10:04:12;18.23;;;12.60;;
30147;SDS011;16960;49.404;8.248;2023-02-24T10:06:53;13.60;;;11.90;;
30147;SDS011;16960;49.404;8.248;2023-02-24T10:09:27;12.93;;;10.80;;
30147;SDS011;16960;49.404;8.248;2023-02-24T10:11:59;12.63;;;10.83;;
30147;SDS011;16960;49.404;8.248;2023-02-24T10:14:35;10.43;;;8.80;;
30147;SDS011;16960;49.404;8.248;2023-02-24T10:17:09;11.93;;;9.70;;
30147;SDS011;16960;49.404;8.248;2023-02-24T10:19:49;15.53;;;11.67;;
30147;SDS011;16960;49.404;8.248;2023-02-24T10:22:26;13.03;;;10.90;;
30147;SDS011;16960;49.404;8.248;2023-02-24T10:25:09;11.63;;;9.40;;
30147;SDS011;16960;49.404;8.248;2023-02-24T10:27:49;9.23;;;8.20;;
30147;SDS011;16960;49.404;8.248;2023-02-24T10:30:37;10.53;;;8.30;;
30147;SDS011;16960;49.404;8.248;2023-02-24T10:33:18;9.37;;;7.57;;
30147;SDS011;16960;49.404;8.248;2023-02-24T10:36:02;12.10;;;8.17;;
30147;SDS011;16960;49.404;8.248;2023-02-24T10:38:33;11.17;;;6.70;;
30147;SDS011;16960;49.404;8.248;2023-02-24T10:41:00;7.10;;;6.40;;
30147;SDS011;16960;49.404;8.248;2023-02-24T10:43:30;10.67;;;7.97;;
30147;SDS011;16960;49.404;8.248;2023-02-24T10:46:17;7.73;;;6.93;;
30147;SDS011;16960;49.404;8.248;2023-02-24T10:48:50;7.03;;;5.70;;
30147;SDS011;16960;49.404;8.248;2023-02-24T10:51:27;8.30;;;6.53;;
30147;SDS011;16960;49.404;8.248;2023-02-24T10:54:08;8.20;;;6.70;;
30147;SDS011;16960;49.404;8.248;2023-02-24T10:56:55;7.10;;;6.40;;
30147;SDS011;16960;49.404;8.248;2023-02-24T10:59:41;7.80;;;5.20;;
30147;SDS011;16960;49.404;8.248;2023-02-24T11:02:45;8.47;;;6.23;;
30147;SDS011;16960;49.404;8.248;2023-02-24T11:05:38;7.77;;;5.97;;
30147;SDS011;16960;49.404;8.248;2023-02-24T11:08:31;8.10;;;5.93;;
30147;SDS011;16960;49.404;8.248;2023-02-24T11:11:18;6.50;;;5.77;;
30147;SDS011;16960;49.404;8.248;2023-02-24T11:13:54;6.87;;;6.17;;
30147;SDS011;16960;49.404;8.248;2023-02-24T11:16:44;6.00;;;5.50;;
30147;SDS011;16960;49.404;8.248;2023-02-24T11:19:31;6.10;;;5.50;;
30147;SDS011;16960;49.404;8.248;2023-02-24T11:22:01;6.20;;;5.60;;
30147;SDS011;16960;49.404;8.248;2023-02-24T11:24:34;8.00;;;6.60;;
30147;SDS011;16960;49.404;8.248;2023-02-24T11:27:02;7.70;;;6.63;;
30147;SDS011;16960;49.404;8.248;2023-02-24T11:29:34;5.60;;;5.10;;
30147;SDS011;16960;49.404;8.248;2023-02-24T11:32:17;5.87;;;5.27;;
30147;SDS011;16960;49.404;8.248;2023-02-24T11:34:58;5.73;;;5.17;;
30147;SDS011;16960;49.404;8.248;2023-02-24T11:37:32;5.73;;;5.20;;
30147;SDS011;16960;49.404;8.248;2023-02-24T11:40:06;6.00;;;5.30;;
30147;SDS011;16960;49.404;8.248;2023-02-24T11:42:41;5.67;;;5.17;;
30147;SDS011;16960;49.404;8.248;2023-02-24T11:45:19;7.53;;;5.13;;
30147;SDS011;16960;49.404;8.248;2023-02-24T11:47:56;5.27;;;4.63;;
30147;SDS011;16960;49.404;8.248;2023-02-24T11:50:29;6.17;;;5.50;;
30147;SDS011;16960;49.404;8.248;2023-02-24T11:53:04;5.33;;;4.83;;
30147;SDS011;16960;49.404;8.248;2023-02-24T11:55:40;5.53;;;4.97;;
30147;SDS011;16960;49.404;8.248;2023-02-24T11:58:11;5.63;;;5.13;;
30147;SDS011;16960;49.404;8.248;2023-02-24T12:00:47;6.00;;;5.40;;
30147;SDS011;16960;49.404;8.248;2023-02-24T12:03:22;5.60;;;4.90;;
30147;SDS011;16960;49.404;8.248;2023-02-24T12:05:55;5.20;;;4.80;;
30147;SDS011;16960;49.404;8.248;2023-02-24T12:08:29;5.70;;;5.20;;
30147;SDS011;16960;49.404;8.248;2023-02-24T12:11:02;5.00;;;4.50;;
30147;SDS011;16960;49.404;8.248;2023-02-24T12:13:36;5.83;;;5.13;;
30147;SDS011;16960;49.404;8.248;2023-02-24T12:16:06;5.03;;;4.63;;
30147;SDS011;16960;49.404;8.248;2023-02-24T12:18:41;5.57;;;4.57;;
30147;SDS011;16960;49.404;8.248;2023-02-24T12:21:13;5.60;;;5.10;;
30147;SDS011;16960;49.404;8.248;2023-02-24T12:23:44;5.23;;;4.73;;
30147;SDS011;16960;49.404;8.248;2023-02-24T12:26:16;6.50;;;5.30;;
30147;SDS011;16960;49.404;8.248;2023-02-24T12:28:53;5.07;;;4.57;;
30147;SDS011;16960;49.404;8.248;2023-02-24T12:31:31;7.27;;;3.90;;
30147;SDS011;16960;49.404;8.248;2023-02-24T12:34:06;4.57;;;4.17;;
30147;SDS011;16960;49.404;8.248;2023-02-24T12:36:45;5.00;;;4.60;;
30147;SDS011;16960;49.404;8.248;2023-02-24T12:39:21;4.40;;;4.00;;
30147;SDS011;16960;49.404;8.248;2023-02-24T12:42:02;4.40;;;4.00;;
30147;SDS011;16960;49.404;8.248;2023-02-24T12:44:37;4.87;;;4.43;;
30147;SDS011;16960;49.404;8.248;2023-02-24T12:47:12;4.40;;;4.00;;
30147;SDS011;16960;49.404;8.248;2023-02-24T12:52:49;5.40;;;4.30;;
30147;SDS011;16960;49.404;8.248;2023-02-24T12:55:21;5.87;;;4.33;;
30147;SDS011;16960;49.404;8.248;2023-02-24T12:57:54;5.20;;;4.00;;
30147;SDS011;16960;49.404;8.248;2023-02-24T13:00:32;4.67;;;4.27;;
30147;SDS011;16960;49.404;8.248;2023-02-24T13:03:12;4.57;;;4.13;;
30147;SDS011;16960;49.404;8.248;2023-02-24T13:05:54;4.73;;;4.43;;
30147;SDS011;16960;49.404;8.248;2023-02-24T13:08:34;4.03;;;3.73;;
30147;SDS011;16960;49.404;8.248;2023-02-24T13:11:11;6.30;;;3.50;;
30147;SDS011;16960;49.404;8.248;2023-02-24T13:13:46;6.77;;;4.17;;
30147;SDS011;16960;49.404;8.248;2023-02-24T13:16:28;4.67;;;4.20;;
30147;SDS011;16960;49.404;8.248;2023-02-24T13:19:03;4.20;;;3.80;;
30147;SDS011;16960;49.404;8.248;2023-02-24T13:21:32;4.07;;;3.77;;
30147;SDS011;16960;49.404;8.248;2023-02-24T13:24:00;3.83;;;3.43;;
30147;SDS011;16960;49.404;8.248;2023-02-24T13:26:28;4.67;;;4.03;;
30147;SDS011;16960;49.404;8.248;2023-02-24T13:28:58;5.70;;;4.00;;
30147;SDS011;16960;49.404;8.248;2023-02-24T13:31:37;4.50;;;4.07;;
30147;SDS011;16960;49.404;8.248;2023-02-24T13:34:28;4.37;;;3.90;;
30147;SDS011;16960;49.404;8.248;2023-02-24T13:36:56;4.23;;;3.83;;
30147;SDS011;16960;49.404;8.248;2023-02-24T13:39:30;4.33;;;3.60;;
30147;SDS011;16960;49.404;8.248;2023-02-24T13:42:03;4.03;;;3.63;;
30147;SDS011;16960;49.404;8.248;2023-02-24T13:44:32;3.97;;;3.57;;
30147;SDS011;16960;49.404;8.248;2023-02-24T13:50:05;4.20;;;3.80;;
30147;SDS011;16960;49.404;8.248;2023-02-24T13:52:46;3.90;;;3.47;;
30147;SDS011;16960;49.404;8.248;2023-02-24T13:55:27;4.03;;;3.73;;
30147;SDS011;16960;49.404;8.248;2023-02-24T13:58:07;4.17;;;3.50;;
30147;SDS011;16960;49.404;8.248;2023-02-24T14:01:04;3.57;;;3.27;;
30147;SDS011;16960;49.404;8.248;2023-02-24T14:03:33;4.10;;;3.70;;
30147;SDS011;16960;49.404;8.248;2023-02-24T14:06:01;3.00;;;2.80;;
30147;SDS011;16960;49.404;8.248;2023-02-24T14:08:32;3.90;;;3.30;;
30147;SDS011;16960;49.404;8.248;2023-02-24T14:11:05;3.67;;;3.37;;
30147;SDS011;16960;49.404;8.248;2023-02-24T14:13:35;3.77;;;3.47;;
30147;SDS011;16960;49.404;8.248;2023-02-24T14:16:05;3.43;;;3.13;;
30147;SDS011;16960;49.404;8.248;2023-02-24T14:18:34;3.50;;;3.20;;
30147;SDS011;16960;49.404;8.248;2023-02-24T14:21:01;3.67;;;3.37;;
30147;SDS011;16960;49.404;8.248;2023-02-24T14:23:29;3.27;;;2.90;;
30147;SDS011;16960;49.404;8.248;2023-02-24T14:25:58;4.07;;;3.50;;
30147;SDS011;16960;49.404;8.248;2023-02-24T14:28:28;4.00;;;3.47;;
30147;SDS011;16960;49.404;8.248;2023-02-24T14:30:57;4.00;;;3.63;;
30147;SDS011;16960;49.404;8.248;2023-02-24T14:33:29;3.70;;;3.10;;
30147;SDS011;16960;49.404;8.248;2023-02-24T14:35:57;3.27;;;2.93;;
30147;SDS011;16960;49.404;8.248;2023-02-24T14:38:29;4.00;;;3.10;;
30147;SDS011;16960;49.404;8.248;2023-02-24T14:40:57;3.27;;;2.97;;
30147;SDS011;16960;49.404;8.248;2023-02-24T14:43:25;4.07;;;3.30;;
30147;SDS011;16960;49.404;8.248;2023-02-24T14:45:52;2.80;;;2.60;;
30147;SDS011;16960;49.404;8.248;2023-02-24T14:48:25;4.10;;;3.30;;
30147;SDS011;16960;49.404;8.248;2023-02-24T14:50:54;3.33;;;3.00;;
30147;SDS011;16960;49.404;8.248;2023-02-24T14:53:29;3.70;;;3.40;;
30147;SDS011;16960;49.404;8.248;2023-02-24T14:55:58;3.90;;;3.53;;
30147;SDS011;16960;49.404;8.248;2023-02-24T14:58:27;4.90;;;3.20;;
30147;SDS011;16960;49.404;8.248;2023-02-24T15:00:58;3.27;;;2.97;;
30147;SDS011;16960;49.404;8.248;2023-02-24T15:03:28;3.30;;;3.00;;
30147;SDS011;16960;49.404;8.248;2023-02-24T15:06:04;7.53;;;2.90;;
30147;SDS011;16960;49.404;8.248;2023-02-24T15:08:38;3.33;;;3.03;;
30147;SDS011;16960;49.404;8.248;2023-02-24T15:11:09;3.23;;;2.93;;
30147;SDS011;16960;49.404;8.248;2023-02-24T15:13:46;3.30;;;2.97;;
30147;SDS011;16960;49.404;8.248;2023-02-24T15:16:17;2.83;;;2.63;;
30147;SDS011;16960;49.404;8.248;2023-02-24T15:18:51;3.63;;;3.33;;
30147;SDS011;16960;49.404;8.248;2023-02-24T15:21:21;3.17;;;2.83;;
30147;SDS011;16960;49.404;8.248;2023-02-24T15:23:57;3.00;;;2.70;;
30147;SDS011;16960;49.404;8.248;2023-02-24T15:26:26;4.07;;;3.30;;
30147;SDS011;16960;49.404;8.248;2023-02-24T15:28:58;5.20;;;2.80;;